sensor_id;sensor_type;location;lat;lon;timestamp;P1;durP1;ratioP1;P2;durP2;ratioP2
8066;SDS011;4076;48.076;9.118;2023-09-19T00:00:57;1.67;;;1.57;;
8066;SDS011;4076;48.076;9.118;2023-09-19T00:03:23;2.13;;;1.70;;
8066;SDS011;4076;48.076;9.118;2023-09-19T00:05:49;2.20;;;2.10;;
8066;SDS011;4076;48.076;9.118;2023-09-19T00:08:15;1.50;;;1.40;;
8066;SDS011;4076;48.076;9.118;2023-09-19T00:10:43;1.70;;;1.60;;
8066;SDS011;4076;48.076;9.118;2023-09-19T00:13:09;3.10;;;1.80;;
8066;SDS011;4076;48.076;9.118;2023-09-19T00:15:39;3.43;;;2.13;;
8066;SDS011;4076;48.076;9.118;2023-09-19T00:18:07;5.13;;;2.10;;
8066;SDS011;4076;48.076;9.118;2023-09-19T00:20:37;2.43;;;1.40;;
8066;SDS011;4076;48.076;9.118;2023-09-19T00:23:04;3.53;;;1.40;;
8066;SDS011;4076;48.076;9.118;2023-09-19T00:25:30;1.37;;;1.27;;
8066;SDS011;4076;48.076;9.118;2023-09-19T00:27:57;2.27;;;1.60;;
8066;SDS011;4076;48.076;9.118;2023-09-19T00:30:23;1.30;;;1.20;;
8066;SDS011;4076;48.076;9.118;2023-09-19T00:32:50;2.40;;;1.73;;
8066;SDS011;4076;48.076;9.118;2023-09-19T00:35:20;2.17;;;1.50;;
8066;SDS011;4076;48.076;9.118;2023-09-19T00:37:48;1.60;;;1.50;;
8066;SDS011;4076;48.076;9.118;2023-09-19T00:40:14;1.33;;;1.23;;
8066;SDS011;4076;48.076;9.118;2023-09-19T00:42:44;1.43;;;1.33;;
8066;SDS011;4076;48.076;9.118;2023-09-19T00:45:11;1.77;;;1.60;;
8066;SDS011;4076;48.076;9.118;2023-09-19T00:47:41;1.93;;;1.73;;
8066;SDS011;4076;48.076;9.118;2023-09-19T00:50:09;1.70;;;1.60;;
8066;SDS011;4076;48.076;9.118;2023-09-19T00:52:36;1.40;;;1.30;;
8066;SDS011;4076;48.076;9.118;2023-09-19T00:55:04;3.17;;;1.50;;
8066;SDS011;4076;48.076;9.118;2023-09-19T00:57:32;2.57;;;1.50;;
8066;SDS011;4076;48.076;9.118;2023-09-19T00:59:58;1.70;;;1.60;;
8066;SDS011;4076;48.076;9.118;2023-09-19T01:02:25;1.70;;;1.60;;
8066;SDS011;4076;48.076;9.118;2023-09-19T01:04:55;1.63;;;1.40;;
8066;SDS011;4076;48.076;9.118;2023-09-19T01:07:20;1.30;;;1.20;;
8066;SDS011;4076;48.076;9.118;2023-09-19T01:09:49;2.63;;;1.77;;
8066;SDS011;4076;48.076;9.118;2023-09-19T01:12:16;1.50;;;1.40;;
8066;SDS011;4076;48.076;9.118;2023-09-19T01:14:54;1.93;;;1.83;;
8066;SDS011;4076;48.076;9.118;2023-09-19T01:17:41;4.63;;;1.50;;
8066;SDS011;4076;48.076;9.118;2023-09-19T01:20:27;1.83;;;1.73;;
8066;SDS011;4076;48.076;9.118;2023-09-19T01:26:07;1.83;;;1.20;;
8066;SDS011;4076;48.076;9.118;2023-09-19T01:28:45;2.50;;;1.80;;
8066;SDS011;4076;48.076;9.118;2023-09-19T01:31:22;1.67;;;1.57;;
8066;SDS011;4076;48.076;9.118;2023-09-19T01:34:02;1.50;;;1.40;;
8066;SDS011;4076;48.076;9.118;2023-09-19T01:36:36;1.60;;;1.50;;
8066;SDS011;4076;48.076;9.118;2023-09-19T01:39:10;1.83;;;1.73;;
8066;SDS011;4076;48.076;9.118;2023-09-19T01:44:51;1.43;;;1.33;;
8066;SDS011;4076;48.076;9.118;2023-09-19T01:47:32;1.77;;;1.60;;
8066;SDS011;4076;48.076;9.118;2023-09-19T01:50:12;2.90;;;2.70;;
8066;SDS011;4076;48.076;9.118;2023-09-19T01:52:46;1.93;;;1.83;;
8066;SDS011;4076;48.076;9.118;2023-09-19T01:55:14;2.23;;;1.80;;
8066;SDS011;4076;48.076;9.118;2023-09-19T01:57:47;2.00;;;1.60;;
8066;SDS011;4076;48.076;9.118;2023-09-19T02:00:17;1.63;;;1.53;;
8066;SDS011;4076;48.076;9.118;2023-09-19T02:02:46;2.27;;;1.87;;
8066;SDS011;4076;48.076;9.118;2023-09-19T02:05:13;1.93;;;1.80;;
8066;SDS011;4076;48.076;9.118;2023-09-19T02:07:48;1.70;;;1.60;;
8066;SDS011;4076;48.076;9.118;2023-09-19T02:10:14;1.67;;;1.57;;
8066;SDS011;4076;48.076;9.118;2023-09-19T02:12:39;1.53;;;1.43;;
8066;SDS011;4076;48.076;9.118;2023-09-19T02:15:05;1.83;;;1.30;;
8066;SDS011;4076;48.076;9.118;2023-09-19T02:17:32;1.67;;;1.57;;
8066;SDS011;4076;48.076;9.118;2023-09-19T02:19:57;2.47;;;1.53;;
8066;SDS011;4076;48.076;9.118;2023-09-19T02:22:23;3.07;;;2.23;;
8066;SDS011;4076;48.076;9.118;2023-09-19T02:24:50;1.90;;;1.80;;
8066;SDS011;4076;48.076;9.118;2023-09-19T02:27:16;2.10;;;1.90;;
8066;SDS011;4076;48.076;9.118;2023-09-19T02:29:42;1.97;;;1.87;;
8066;SDS011;4076;48.076;9.118;2023-09-19T02:32:08;1.27;;;1.17;;
8066;SDS011;4076;48.076;9.118;2023-09-19T02:34:36;2.70;;;2.10;;
8066;SDS011;4076;48.076;9.118;2023-09-19T02:37:04;1.80;;;1.70;;
8066;SDS011;4076;48.076;9.118;2023-09-19T02:39:33;2.07;;;1.97;;
8066;SDS011;4076;48.076;9.118;2023-09-19T02:42:00;1.77;;;1.67;;
8066;SDS011;4076;48.076;9.118;2023-09-19T02:44:25;1.63;;;1.53;;
8066;SDS011;4076;48.076;9.118;2023-09-19T02:46:51;2.10;;;1.70;;
8066;SDS011;4076;48.076;9.118;2023-09-19T02:49:17;1.93;;;1.83;;
8066;SDS011;4076;48.076;9.118;2023-09-19T02:51:43;2.40;;;1.30;;
8066;SDS011;4076;48.076;9.118;2023-09-19T02:54:09;1.97;;;1.77;;
8066;SDS011;4076;48.076;9.118;2023-09-19T02:56:35;2.40;;;2.20;;
8066;SDS011;4076;48.076;9.118;2023-09-19T02:59:02;1.93;;;1.73;;
8066;SDS011;4076;48.076;9.118;2023-09-19T03:01:28;1.67;;;1.50;;
8066;SDS011;4076;48.076;9.118;2023-09-19T03:03:53;1.90;;;1.70;;
8066;SDS011;4076;48.076;9.118;2023-09-19T03:06:19;1.57;;;1.47;;
8066;SDS011;4076;48.076;9.118;2023-09-19T03:08:46;1.80;;;1.70;;
8066;SDS011;4076;48.076;9.118;2023-09-19T03:11:13;1.93;;;1.73;;
8066;SDS011;4076;48.076;9.118;2023-09-19T03:13:41;1.60;;;1.50;;
8066;SDS011;4076;48.076;9.118;2023-09-19T03:16:07;2.23;;;1.70;;
8066;SDS011;4076;48.076;9.118;2023-09-19T03:18:34;1.50;;;1.40;;
8066;SDS011;4076;48.076;9.118;2023-09-19T03:20:59;1.70;;;1.60;;
8066;SDS011;4076;48.076;9.118;2023-09-19T03:23:25;2.03;;;1.93;;
8066;SDS011;4076;48.076;9.118;2023-09-19T03:25:52;4.43;;;2.73;;
8066;SDS011;4076;48.076;9.118;2023-09-19T03:28:18;1.90;;;1.70;;
8066;SDS011;4076;48.076;9.118;2023-09-19T03:30:45;1.63;;;1.53;;
8066;SDS011;4076;48.076;9.118;2023-09-19T03:33:11;3.80;;;1.93;;
8066;SDS011;4076;48.076;9.118;2023-09-19T03:35:37;1.60;;;1.50;;
8066;SDS011;4076;48.076;9.118;2023-09-19T03:38:04;2.90;;;1.73;;
8066;SDS011;4076;48.076;9.118;2023-09-19T03:40:30;3.37;;;2.00;;
8066;SDS011;4076;48.076;9.118;2023-09-19T03:42:56;2.03;;;1.73;;
8066;SDS011;4076;48.076;9.118;2023-09-19T03:45:21;2.30;;;2.07;;
8066;SDS011;4076;48.076;9.118;2023-09-19T03:47:47;2.20;;;2.00;;
8066;SDS011;4076;48.076;9.118;2023-09-19T03:50:12;1.53;;;1.43;;
8066;SDS011;4076;48.076;9.118;2023-09-19T03:52:43;1.53;;;1.43;;
8066;SDS011;4076;48.076;9.118;2023-09-19T03:55:09;1.43;;;1.33;;
8066;SDS011;4076;48.076;9.118;2023-09-19T03:57:35;1.30;;;1.20;;
8066;SDS011;4076;48.076;9.118;2023-09-19T04:00:01;2.40;;;1.40;;
8066;SDS011;4076;48.076;9.118;2023-09-19T04:02:27;1.40;;;1.30;;
8066;SDS011;4076;48.076;9.118;2023-09-19T04:04:58;1.60;;;1.30;;
8066;SDS011;4076;48.076;9.118;2023-09-19T04:07:24;0.90;;;0.90;;
8066;SDS011;4076;48.076;9.118;2023-09-19T04:09:53;1.30;;;1.20;;
8066;SDS011;4076;48.076;9.118;2023-09-19T04:12:19;1.20;;;1.10;;
8066;SDS011;4076;48.076;9.118;2023-09-19T04:14:44;1.00;;;0.90;;
8066;SDS011;4076;48.076;9.118;2023-09-19T04:17:10;1.23;;;1.00;;
8066;SDS011;4076;48.076;9.118;2023-09-19T04:19:36;1.27;;;1.17;;
8066;SDS011;4076;48.076;9.118;2023-09-19T04:22:02;2.10;;;1.33;;
8066;SDS011;4076;48.076;9.118;2023-09-19T04:24:28;1.50;;;1.40;;
8066;SDS011;4076;48.076;9.118;2023-09-19T04:26:54;1.80;;;1.07;;
8066;SDS011;4076;48.076;9.118;2023-09-19T04:29:20;1.20;;;1.10;;
8066;SDS011;4076;48.076;9.118;2023-09-19T04:31:45;1.47;;;1.33;;
8066;SDS011;4076;48.076;9.118;2023-09-19T04:34:11;1.47;;;1.37;;
8066;SDS011;4076;48.076;9.118;2023-09-19T04:36:42;3.40;;;3.10;;
8066;SDS011;4076;48.076;9.118;2023-09-19T04:39:08;1.67;;;1.57;;
8066;SDS011;4076;48.076;9.118;2023-09-19T04:41:37;1.40;;;1.27;;
8066;SDS011;4076;48.076;9.118;2023-09-19T04:44:06;1.33;;;1.23;;
8066;SDS011;4076;48.076;9.118;2023-09-19T04:46:35;1.30;;;1.20;;
8066;SDS011;4076;48.076;9.118;2023-09-19T04:49:01;1.20;;;1.10;;
8066;SDS011;4076;48.076;9.118;2023-09-19T04:51:27;1.50;;;1.40;;
8066;SDS011;4076;48.076;9.118;2023-09-19T04:53:57;1.30;;;1.20;;
8066;SDS011;4076;48.076;9.118;2023-09-19T04:56:23;1.33;;;1.20;;
8066;SDS011;4076;48.076;9.118;2023-09-19T04:58:49;1.40;;;1.30;;
8066;SDS011;4076;48.076;9.118;2023-09-19T05:01:14;1.33;;;1.23;;
8066;SDS011;4076;48.076;9.118;2023-09-19T05:03:41;1.40;;;1.30;;
8066;SDS011;4076;48.076;9.118;2023-09-19T05:06:07;1.27;;;1.17;;
8066;SDS011;4076;48.076;9.118;2023-09-19T05:08:32;1.50;;;1.40;;
8066;SDS011;4076;48.076;9.118;2023-09-19T05:10:58;1.20;;;1.10;;
8066;SDS011;4076;48.076;9.118;2023-09-19T05:13:26;1.37;;;1.23;;
8066;SDS011;4076;48.076;9.118;2023-09-19T05:15:52;1.27;;;1.10;;
8066;SDS011;4076;48.076;9.118;2023-09-19T05:18:18;2.17;;;1.00;;
8066;SDS011;4076;48.076;9.118;2023-09-19T05:20:43;1.30;;;1.20;;
8066;SDS011;4076;48.076;9.118;2023-09-19T05:23:09;1.30;;;1.00;;
8066;SDS011;4076;48.076;9.118;2023-09-19T05:25:37;1.23;;;1.13;;
8066;SDS011;4076;48.076;9.118;2023-09-19T05:28:08;1.37;;;1.10;;
8066;SDS011;4076;48.076;9.118;2023-09-19T05:30:35;1.83;;;1.53;;
8066;SDS011;4076;48.076;9.118;2023-09-19T05:33:01;2.27;;;1.07;;
8066;SDS011;4076;48.076;9.118;2023-09-19T05:35:29;1.20;;;1.10;;
8066;SDS011;4076;48.076;9.118;2023-09-19T05:37:55;1.30;;;1.20;;
8066;SDS011;4076;48.076;9.118;2023-09-19T05:40:22;1.30;;;1.20;;
8066;SDS011;4076;48.076;9.118;2023-09-19T05:42:48;1.20;;;1.10;;
8066;SDS011;4076;48.076;9.118;2023-09-19T05:45:15;1.40;;;1.30;;
8066;SDS011;4076;48.076;9.118;2023-09-19T05:47:47;3.60;;;2.87;;
8066;SDS011;4076;48.076;9.118;2023-09-19T05:50:13;3.07;;;2.77;;
8066;SDS011;4076;48.076;9.118;2023-09-19T05:52:40;2.90;;;2.70;;
8066;SDS011;4076;48.076;9.118;2023-09-19T05:55:07;2.27;;;2.07;;
8066;SDS011;4076;48.076;9.118;2023-09-19T05:57:34;2.97;;;2.07;;
8066;SDS011;4076;48.076;9.118;2023-09-19T05:59:59;2.50;;;2.33;;
8066;SDS011;4076;48.076;9.118;2023-09-19T06:02:25;1.83;;;1.73;;
8066;SDS011;4076;48.076;9.118;2023-09-19T06:04:55;2.23;;;2.13;;
8066;SDS011;4076;48.076;9.118;2023-09-19T06:07:21;1.30;;;1.20;;
8066;SDS011;4076;48.076;9.118;2023-09-19T06:09:51;2.07;;;1.30;;
8066;SDS011;4076;48.076;9.118;2023-09-19T06:12:16;1.63;;;1.53;;
8066;SDS011;4076;48.076;9.118;2023-09-19T06:14:42;1.40;;;1.30;;
8066;SDS011;4076;48.076;9.118;2023-09-19T06:17:08;1.30;;;1.20;;
8066;SDS011;4076;48.076;9.118;2023-09-19T06:19:34;1.70;;;1.50;;
8066;SDS011;4076;48.076;9.118;2023-09-19T06:21:59;1.57;;;1.30;;
8066;SDS011;4076;48.076;9.118;2023-09-19T06:24:25;1.13;;;1.03;;
8066;SDS011;4076;48.076;9.118;2023-09-19T06:26:51;1.20;;;1.10;;
8066;SDS011;4076;48.076;9.118;2023-09-19T06:29:17;1.73;;;1.63;;
8066;SDS011;4076;48.076;9.118;2023-09-19T06:31:43;2.03;;;1.40;;
8066;SDS011;4076;48.076;9.118;2023-09-19T06:34:09;2.87;;;2.03;;
8066;SDS011;4076;48.076;9.118;2023-09-19T06:36:35;1.97;;;1.57;;
8066;SDS011;4076;48.076;9.118;2023-09-19T06:39:01;1.37;;;1.27;;
8066;SDS011;4076;48.076;9.118;2023-09-19T06:41:29;1.63;;;1.50;;
8066;SDS011;4076;48.076;9.118;2023-09-19T06:43:55;1.40;;;1.30;;
8066;SDS011;4076;48.076;9.118;2023-09-19T06:49:42;2.67;;;1.53;;
8066;SDS011;4076;48.076;9.118;2023-09-19T06:52:09;1.30;;;1.20;;
8066;SDS011;4076;48.076;9.118;2023-09-19T06:54:35;1.37;;;1.27;;
8066;SDS011;4076;48.076;9.118;2023-09-19T06:57:01;1.50;;;1.40;;
8066;SDS011;4076;48.076;9.118;2023-09-19T06:59:26;1.27;;;1.10;;
8066;SDS011;4076;48.076;9.118;2023-09-19T07:01:52;1.87;;;1.77;;
8066;SDS011;4076;48.076;9.118;2023-09-19T07:04:18;1.73;;;1.63;;
8066;SDS011;4076;48.076;9.118;2023-09-19T07:06:49;2.10;;;2.00;;
8066;SDS011;4076;48.076;9.118;2023-09-19T07:09:15;7.73;;;2.50;;
8066;SDS011;4076;48.076;9.118;2023-09-19T07:11:41;1.70;;;1.60;;
8066;SDS011;4076;48.076;9.118;2023-09-19T07:14:07;2.03;;;1.50;;
8066;SDS011;4076;48.076;9.118;2023-09-19T07:16:36;1.30;;;1.20;;
8066;SDS011;4076;48.076;9.118;2023-09-19T07:19:03;2.00;;;1.80;;
8066;SDS011;4076;48.076;9.118;2023-09-19T07:21:29;1.70;;;1.37;;
8066;SDS011;4076;48.076;9.118;2023-09-19T07:23:55;1.30;;;1.20;;
8066;SDS011;4076;48.076;9.118;2023-09-19T07:26:21;2.17;;;1.90;;
8066;SDS011;4076;48.076;9.118;2023-09-19T07:28:47;1.80;;;1.70;;
8066;SDS011;4076;48.076;9.118;2023-09-19T07:31:12;2.00;;;1.87;;
8066;SDS011;4076;48.076;9.118;2023-09-19T07:33:39;2.80;;;1.70;;
8066;SDS011;4076;48.076;9.118;2023-09-19T07:36:05;2.20;;;2.00;;
8066;SDS011;4076;48.076;9.118;2023-09-19T07:38:31;3.10;;;2.90;;
8066;SDS011;4076;48.076;9.118;2023-09-19T07:41:01;2.20;;;2.07;;
8066;SDS011;4076;48.076;9.118;2023-09-19T07:43:27;3.00;;;2.77;;
8066;SDS011;4076;48.076;9.118;2023-09-19T07:45:53;2.30;;;2.10;;
8066;SDS011;4076;48.076;9.118;2023-09-19T07:48:18;3.20;;;3.00;;
8066;SDS011;4076;48.076;9.118;2023-09-19T07:50:44;2.57;;;2.37;;
8066;SDS011;4076;48.076;9.118;2023-09-19T07:53:10;5.33;;;2.37;;
8066;SDS011;4076;48.076;9.118;2023-09-19T07:55:38;2.43;;;2.23;;
8066;SDS011;4076;48.076;9.118;2023-09-19T07:58:06;3.37;;;2.00;;
8066;SDS011;4076;48.076;9.118;2023-09-19T08:00:32;2.50;;;2.30;;
8066;SDS011;4076;48.076;9.118;2023-09-19T08:03:00;2.23;;;2.00;;
8066;SDS011;4076;48.076;9.118;2023-09-19T08:05:26;2.20;;;1.97;;
8066;SDS011;4076;48.076;9.118;2023-09-19T08:07:51;2.87;;;2.67;;
8066;SDS011;4076;48.076;9.118;2023-09-19T08:10:18;1.40;;;1.30;;
8066;SDS011;4076;48.076;9.118;2023-09-19T08:12:46;2.00;;;1.57;;
8066;SDS011;4076;48.076;9.118;2023-09-19T08:15:16;1.40;;;1.30;;
8066;SDS011;4076;48.076;9.118;2023-09-19T08:17:44;1.50;;;1.40;;
8066;SDS011;4076;48.076;9.118;2023-09-19T08:20:10;2.40;;;2.20;;
8066;SDS011;4076;48.076;9.118;2023-09-19T08:22:49;1.60;;;1.50;;
8066;SDS011;4076;48.076;9.118;2023-09-19T08:25:17;1.57;;;1.47;;
8066;SDS011;4076;48.076;9.118;2023-09-19T08:27:44;1.53;;;1.43;;
8066;SDS011;4076;48.076;9.118;2023-09-19T08:30:17;1.93;;;1.83;;
8066;SDS011;4076;48.076;9.118;2023-09-19T08:32:48;1.97;;;1.87;;
8066;SDS011;4076;48.076;9.118;2023-09-19T08:35:14;1.57;;;1.43;;
8066;SDS011;4076;48.076;9.118;2023-09-19T08:37:40;2.00;;;1.83;;
8066;SDS011;4076;48.076;9.118;2023-09-19T08:40:07;1.40;;;1.30;;
8066;SDS011;4076;48.076;9.118;2023-09-19T08:42:53;1.70;;;1.60;;
8066;SDS011;4076;48.076;9.118;2023-09-19T08:45:20;1.50;;;1.40;;
8066;SDS011;4076;48.076;9.118;2023-09-19T08:48:13;1.37;;;1.27;;
8066;SDS011;4076;48.076;9.118;2023-09-19T08:51:00;2.03;;;1.67;;
8066;SDS011;4076;48.076;9.118;2023-09-19T08:53:35;1.30;;;1.20;;
8066;SDS011;4076;48.076;9.118;2023-09-19T08:56:08;1.93;;;1.43;;
8066;SDS011;4076;48.076;9.118;2023-09-19T08:58:40;1.03;;;1.00;;
8066;SDS011;4076;48.076;9.118;2023-09-19T09:01:16;1.20;;;1.10;;
8066;SDS011;4076;48.076;9.118;2023-09-19T09:03:47;3.10;;;1.10;;
8066;SDS011;4076;48.076;9.118;2023-09-19T09:06:14;1.10;;;1.10;;
8066;SDS011;4076;48.076;9.118;2023-09-19T09:08:40;1.30;;;1.20;;
8066;SDS011;4076;48.076;9.118;2023-09-19T09:11:08;0.90;;;0.90;;
8066;SDS011;4076;48.076;9.118;2023-09-19T09:13:34;1.13;;;1.10;;
8066;SDS011;4076;48.076;9.118;2023-09-19T09:16:01;1.07;;;1.07;;
8066;SDS011;4076;48.076;9.118;2023-09-19T09:18:27;1.30;;;1.20;;
8066;SDS011;4076;48.076;9.118;2023-09-19T09:20:57;1.30;;;1.20;;
8066;SDS011;4076;48.076;9.118;2023-09-19T09:23:22;1.83;;;1.73;;
8066;SDS011;4076;48.076;9.118;2023-09-19T09:25:50;2.37;;;1.73;;
8066;SDS011;4076;48.076;9.118;2023-09-19T09:28:22;1.37;;;1.27;;
8066;SDS011;4076;48.076;9.118;2023-09-19T09:30:49;1.40;;;1.30;;
8066;SDS011;4076;48.076;9.118;2023-09-19T09:33:16;1.50;;;1.40;;
8066;SDS011;4076;48.076;9.118;2023-09-19T09:38:21;2.00;;;1.90;;
8066;SDS011;4076;48.076;9.118;2023-09-19T09:40:52;1.73;;;1.63;;
8066;SDS011;4076;48.076;9.118;2023-09-19T09:43:39;1.80;;;1.70;;
8066;SDS011;4076;48.076;9.118;2023-09-19T09:46:07;1.60;;;1.50;;
8066;SDS011;4076;48.076;9.118;2023-09-19T09:48:44;2.00;;;1.90;;
8066;SDS011;4076;48.076;9.118;2023-09-19T09:51:23;1.60;;;1.50;;
8066;SDS011;4076;48.076;9.118;2023-09-19T09:54:08;1.60;;;1.50;;
8066;SDS011;4076;48.076;9.118;2023-09-19T09:59:42;1.33;;;1.23;;
8066;SDS011;4076;48.076;9.118;2023-09-19T10:02:14;1.20;;;1.10;;
8066;SDS011;4076;48.076;9.118;2023-09-19T10:04:49;1.53;;;1.43;;
8066;SDS011;4076;48.076;9.118;2023-09-19T10:07:27;1.50;;;1.40;;
8066;SDS011;4076;48.076;9.118;2023-09-19T10:09:58;1.30;;;1.20;;
8066;SDS011;4076;48.076;9.118;2023-09-19T10:12:31;1.30;;;1.20;;
8066;SDS011;4076;48.076;9.118;2023-09-19T10:15:03;3.10;;;1.30;;
8066;SDS011;4076;48.076;9.118;2023-09-19T10:17:33;1.60;;;1.50;;
8066;SDS011;4076;48.076;9.118;2023-09-19T10:20:01;1.20;;;1.10;;
8066;SDS011;4076;48.076;9.118;2023-09-19T10:22:35;2.20;;;1.40;;
8066;SDS011;4076;48.076;9.118;2023-09-19T10:25:02;1.10;;;1.00;;
8066;SDS011;4076;48.076;9.118;2023-09-19T10:27:32;1.20;;;1.10;;
8066;SDS011;4076;48.076;9.118;2023-09-19T10:30:02;1.10;;;1.00;;
8066;SDS011;4076;48.076;9.118;2023-09-19T10:32:32;1.90;;;1.80;;
8066;SDS011;4076;48.076;9.118;2023-09-19T10:35:00;1.97;;;1.80;;
8066;SDS011;4076;48.076;9.118;2023-09-19T10:37:30;2.10;;;1.40;;
8066;SDS011;4076;48.076;9.118;2023-09-19T10:39:57;1.20;;;1.10;;
8066;SDS011;4076;48.076;9.118;2023-09-19T10:42:24;1.40;;;1.30;;
8066;SDS011;4076;48.076;9.118;2023-09-19T10:44:53;1.33;;;1.23;;
8066;SDS011;4076;48.076;9.118;2023-09-19T10:47:25;1.40;;;1.30;;
8066;SDS011;4076;48.076;9.118;2023-09-19T10:49:51;1.87;;;1.20;;
8066;SDS011;4076;48.076;9.118;2023-09-19T10:52:17;2.10;;;1.47;;
8066;SDS011;4076;48.076;9.118;2023-09-19T10:54:48;1.63;;;1.53;;
8066;SDS011;4076;48.076;9.118;2023-09-19T10:57:19;1.23;;;1.10;;
8066;SDS011;4076;48.076;9.118;2023-09-19T11:00:04;1.43;;;1.33;;
8066;SDS011;4076;48.076;9.118;2023-09-19T11:03:16;2.57;;;1.40;;
8066;SDS011;4076;48.076;9.118;2023-09-19T11:05:43;2.57;;;2.00;;
8066;SDS011;4076;48.076;9.118;2023-09-19T11:08:29;1.47;;;1.37;;
8066;SDS011;4076;48.076;9.118;2023-09-19T11:11:35;1.40;;;1.30;;
8066;SDS011;4076;48.076;9.118;2023-09-19T11:17:29;1.20;;;1.10;;
8066;SDS011;4076;48.076;9.118;2023-09-19T11:30:41;1.33;;;1.23;;
8066;SDS011;4076;48.076;9.118;2023-09-19T11:33:23;1.90;;;1.80;;
8066;SDS011;4076;48.076;9.118;2023-09-19T11:36:12;1.33;;;1.20;;
8066;SDS011;4076;48.076;9.118;2023-09-19T11:44:31;3.80;;;3.03;;
8066;SDS011;4076;48.076;9.118;2023-09-19T11:49:25;1.20;;;1.10;;
8066;SDS011;4076;48.076;9.118;2023-09-19T11:51:56;1.33;;;1.23;;
8066;SDS011;4076;48.076;9.118;2023-09-19T11:54:26;1.80;;;1.60;;
8066;SDS011;4076;48.076;9.118;2023-09-19T11:56:56;1.57;;;1.47;;
8066;SDS011;4076;48.076;9.118;2023-09-19T11:59:31;1.40;;;1.30;;
8066;SDS011;4076;48.076;9.118;2023-09-19T12:01:58;1.47;;;1.30;;
8066;SDS011;4076;48.076;9.118;2023-09-19T12:04:42;1.50;;;1.37;;
8066;SDS011;4076;48.076;9.118;2023-09-19T12:07:11;2.43;;;1.43;;
8066;SDS011;4076;48.076;9.118;2023-09-19T12:09:50;1.73;;;1.63;;
8066;SDS011;4076;48.076;9.118;2023-09-19T12:12:29;1.13;;;1.13;;
8066;SDS011;4076;48.076;9.118;2023-09-19T12:14:55;2.17;;;2.07;;
8066;SDS011;4076;48.076;9.118;2023-09-19T12:17:38;1.47;;;1.37;;
8066;SDS011;4076;48.076;9.118;2023-09-19T12:20:06;1.50;;;1.40;;
8066;SDS011;4076;48.076;9.118;2023-09-19T12:22:45;1.83;;;1.73;;
8066;SDS011;4076;48.076;9.118;2023-09-19T12:25:12;1.73;;;1.63;;
8066;SDS011;4076;48.076;9.118;2023-09-19T12:27:45;2.33;;;2.13;;
8066;SDS011;4076;48.076;9.118;2023-09-19T12:30:12;3.20;;;2.80;;
8066;SDS011;4076;48.076;9.118;2023-09-19T12:32:47;1.47;;;1.37;;
8066;SDS011;4076;48.076;9.118;2023-09-19T12:35:30;2.23;;;2.03;;
8066;SDS011;4076;48.076;9.118;2023-09-19T12:38:00;1.43;;;1.33;;
8066;SDS011;4076;48.076;9.118;2023-09-19T12:40:28;1.73;;;1.63;;
8066;SDS011;4076;48.076;9.118;2023-09-19T12:42:54;3.57;;;3.43;;
8066;SDS011;4076;48.076;9.118;2023-09-19T12:45:20;5.33;;;5.03;;
8066;SDS011;4076;48.076;9.118;2023-09-19T12:53:41;1.90;;;1.80;;
8066;SDS011;4076;48.076;9.118;2023-09-19T12:56:14;2.77;;;2.57;;
8066;SDS011;4076;48.076;9.118;2023-09-19T12:58:51;2.90;;;2.53;;
8066;SDS011;4076;48.076;9.118;2023-09-19T13:01:20;2.30;;;2.10;;
8066;SDS011;4076;48.076;9.118;2023-09-19T13:06:37;1.90;;;1.80;;
8066;SDS011;4076;48.076;9.118;2023-09-19T13:09:09;1.70;;;1.60;;
8066;SDS011;4076;48.076;9.118;2023-09-19T13:11:36;1.40;;;1.30;;
8066;SDS011;4076;48.076;9.118;2023-09-19T13:14:24;1.43;;;1.33;;
8066;SDS011;4076;48.076;9.118;2023-09-19T13:17:03;2.03;;;1.60;;
8066;SDS011;4076;48.076;9.118;2023-09-19T13:25:03;2.77;;;2.30;;
8066;SDS011;4076;48.076;9.118;2023-09-19T13:27:31;3.80;;;1.90;;
8066;SDS011;4076;48.076;9.118;2023-09-19T13:29:58;3.20;;;3.00;;
8066;SDS011;4076;48.076;9.118;2023-09-19T13:32:23;1.53;;;1.43;;
8066;SDS011;4076;48.076;9.118;2023-09-19T13:34:49;2.20;;;2.00;;
8066;SDS011;4076;48.076;9.118;2023-09-19T13:37:16;1.40;;;1.30;;
8066;SDS011;4076;48.076;9.118;2023-09-19T13:39:43;2.13;;;1.70;;
8066;SDS011;4076;48.076;9.118;2023-09-19T13:42:12;1.80;;;1.70;;
8066;SDS011;4076;48.076;9.118;2023-09-19T13:44:38;2.03;;;1.80;;
8066;SDS011;4076;48.076;9.118;2023-09-19T13:47:06;2.13;;;1.93;;
8066;SDS011;4076;48.076;9.118;2023-09-19T13:49:34;1.73;;;1.63;;
8066;SDS011;4076;48.076;9.118;2023-09-19T13:52:01;1.83;;;1.73;;
8066;SDS011;4076;48.076;9.118;2023-09-19T13:54:30;1.83;;;1.73;;
8066;SDS011;4076;48.076;9.118;2023-09-19T13:56:56;2.33;;;1.20;;
8066;SDS011;4076;48.076;9.118;2023-09-19T13:59:21;1.90;;;1.80;;
8066;SDS011;4076;48.076;9.118;2023-09-19T14:01:49;1.10;;;1.00;;
8066;SDS011;4076;48.076;9.118;2023-09-19T14:04:15;1.37;;;1.27;;
8066;SDS011;4076;48.076;9.118;2023-09-19T14:06:42;1.50;;;1.40;;
8066;SDS011;4076;48.076;9.118;2023-09-19T14:09:08;1.60;;;1.33;;
8066;SDS011;4076;48.076;9.118;2023-09-19T14:11:35;1.43;;;1.33;;
8066;SDS011;4076;48.076;9.118;2023-09-19T14:14:01;1.47;;;1.37;;
8066;SDS011;4076;48.076;9.118;2023-09-19T14:16:27;5.17;;;2.17;;
8066;SDS011;4076;48.076;9.118;2023-09-19T14:18:55;1.50;;;1.40;;
8066;SDS011;4076;48.076;9.118;2023-09-19T14:21:21;2.13;;;2.03;;
8066;SDS011;4076;48.076;9.118;2023-09-19T14:23:48;1.27;;;1.17;;
8066;SDS011;4076;48.076;9.118;2023-09-19T14:26:14;1.40;;;1.30;;
8066;SDS011;4076;48.076;9.118;2023-09-19T14:28:42;1.50;;;1.30;;
8066;SDS011;4076;48.076;9.118;2023-09-19T14:31:08;2.73;;;1.80;;
8066;SDS011;4076;48.076;9.118;2023-09-19T14:33:35;1.60;;;1.50;;
8066;SDS011;4076;48.076;9.118;2023-09-19T14:36:04;1.20;;;1.10;;
8066;SDS011;4076;48.076;9.118;2023-09-19T14:38:32;1.30;;;1.20;;
8066;SDS011;4076;48.076;9.118;2023-09-19T14:41:02;1.17;;;1.07;;
8066;SDS011;4076;48.076;9.118;2023-09-19T14:43:28;1.47;;;1.37;;
8066;SDS011;4076;48.076;9.118;2023-09-19T14:46:04;1.30;;;1.20;;
8066;SDS011;4076;48.076;9.118;2023-09-19T14:48:30;1.30;;;1.20;;
8066;SDS011;4076;48.076;9.118;2023-09-19T14:50:55;1.00;;;0.90;;
8066;SDS011;4076;48.076;9.118;2023-09-19T14:53:34;1.20;;;1.10;;
8066;SDS011;4076;48.076;9.118;2023-09-19T14:56:03;1.13;;;1.00;;
8066;SDS011;4076;48.076;9.118;2023-09-19T14:58:30;1.57;;;1.10;;
8066;SDS011;4076;48.076;9.118;2023-09-19T15:01:06;1.37;;;1.27;;
8066;SDS011;4076;48.076;9.118;2023-09-19T15:03:33;1.50;;;1.40;;
8066;SDS011;4076;48.076;9.118;2023-09-19T15:06:01;1.20;;;1.10;;
8066;SDS011;4076;48.076;9.118;2023-09-19T15:08:27;1.93;;;1.20;;
8066;SDS011;4076;48.076;9.118;2023-09-19T15:10:53;1.40;;;1.30;;
8066;SDS011;4076;48.076;9.118;2023-09-19T15:13:19;1.33;;;1.23;;
8066;SDS011;4076;48.076;9.118;2023-09-19T15:15:45;1.57;;;1.10;;
8066;SDS011;4076;48.076;9.118;2023-09-19T15:18:13;1.40;;;1.30;;
8066;SDS011;4076;48.076;9.118;2023-09-19T15:20:45;1.50;;;1.27;;
8066;SDS011;4076;48.076;9.118;2023-09-19T15:23:11;1.80;;;1.70;;
8066;SDS011;4076;48.076;9.118;2023-09-19T15:25:37;1.67;;;1.57;;
8066;SDS011;4076;48.076;9.118;2023-09-19T15:28:05;1.37;;;1.27;;
8066;SDS011;4076;48.076;9.118;2023-09-19T15:30:39;1.63;;;1.53;;
8066;SDS011;4076;48.076;9.118;2023-09-19T15:33:04;1.43;;;1.20;;
8066;SDS011;4076;48.076;9.118;2023-09-19T15:35:30;1.53;;;1.43;;
8066;SDS011;4076;48.076;9.118;2023-09-19T15:37:55;1.40;;;1.30;;
8066;SDS011;4076;48.076;9.118;2023-09-19T15:40:21;1.50;;;1.40;;
8066;SDS011;4076;48.076;9.118;2023-09-19T15:42:49;1.30;;;1.20;;
8066;SDS011;4076;48.076;9.118;2023-09-19T15:45:15;1.20;;;1.10;;
8066;SDS011;4076;48.076;9.118;2023-09-19T15:47:41;1.37;;;1.20;;
8066;SDS011;4076;48.076;9.118;2023-09-19T15:50:08;1.50;;;1.40;;
8066;SDS011;4076;48.076;9.118;2023-09-19T15:52:40;1.30;;;1.20;;
8066;SDS011;4076;48.076;9.118;2023-09-19T15:55:07;1.30;;;1.20;;
8066;SDS011;4076;48.076;9.118;2023-09-19T15:57:34;1.30;;;1.20;;
8066;SDS011;4076;48.076;9.118;2023-09-19T16:00:03;1.60;;;1.50;;
8066;SDS011;4076;48.076;9.118;2023-09-19T16:02:35;1.17;;;1.07;;
8066;SDS011;4076;48.076;9.118;2023-09-19T16:05:01;1.17;;;1.07;;
8066;SDS011;4076;48.076;9.118;2023-09-19T16:07:30;1.20;;;1.10;;
8066;SDS011;4076;48.076;9.118;2023-09-19T16:09:56;1.63;;;1.33;;
8066;SDS011;4076;48.076;9.118;2023-09-19T16:12:22;15.13;;;13.53;;
8066;SDS011;4076;48.076;9.118;2023-09-19T16:14:47;106.10;;;93.40;;
8066;SDS011;4076;48.076;9.118;2023-09-19T16:17:14;74.47;;;57.60;;